メインページ
METAR-TAF:

METAR-TAF

空港 :

タンナ島, バヌアツ

緯度: 19-27-18S, 経度: 169-13-26E, 海抜: 6m

現時点の気象観測

当レポートは1時間48分前の15:00(UTC)に作成
南/南東の風 3kt
気温 21°C
湿度 88%
気圧 1010 hPa

METAR: NVVW 171500Z AUTO 15003KT //// // NCD 21/19 Q1010 RMK NIL

時間: 03:48 (16:48 UTC)

予報

当レポートは6時間48分前の10:00(UTC)に作成
予報は17日の 12時(UTC)から 18日の 12時(UTC)まで有効
南/南東の風 3kt
視程10km以上
高度2200ftの雲は散在している
確率 30%
間 INからTE UTC
視程: 9000m
高度1800ftの千切れ雲あり
弱いにわか雨

TAF: NVVW 171000Z 1712/1812 15003KT 9999 SCT022 PROB30 INTER 1712/1718 9000 -SHRA BKN018

4,000以上の空港の気象観測と天気予報(METAR報とTAF報)

利用可能な観測所は地図上に黄色い丸と赤い丸で示す。

丸の上にカーソルを重ねると観測所名を参照できる。

次にクリックすると気象観測と天気予報を参照できる。

マップの切り替え:黒色「×」印の緑ボタンをクリックして拡大、「-」印の緑ボタンをクリックして縮小、緑色の三角印をクリックして隣りの地図に切り替え


METAR-TAF: